バンコク/スワンナプーム の空港の天気 - METARとTAF

スワンナプーム国際空港 ( VTBS / BKK ) - タイ サムットプラーカーン県 (バンコク近郊)
飛行場実況気象(Metar)
観測時間08/14 12:00 ICT (08/14 05:00 UTC)
風向・風速南 6m/s
視程10km以上
天気現象
少しの雲 雲底高度 610m
全天の4割程度の雲 雲底高度 910m
気温31℃
湿度66%
気圧1009hPa
METARVTBS 140500Z 18011KT 9999 FEW020CB SCT030 31/24 Q1009 NOSIG
過去の天気等 Google飛行場航空写真 Wunderground天気予報

過去48時間のMETAR

飛行場予報(TAF)
発表時間: 8/14 06:00 ICT (8/13 23:00 UTC)
予報対象時間: 14日7時 ICT ~ 15日13時 ICT
風向・風速東 3m/s
視程9000m
少しの雲 雲底高度 610m
全天の4割程度の雲 雲底高度 1220m
14日9時 ICT ~ 14日11時 ICT に徐々に
風向・風速南西 4m/s
14日16時 ICT ~ 14日22時 ICT に一時的に
風向・風速西南西 5m/s 瞬間風速 13m/s
視程4000m
天気現象雷雨
少しの積乱雲 雲底高度 550m
全天の4割程度の雲 雲底高度 910m
全天の8割程度の雲 雲底高度 2440m
TAF VTBS 132300Z 1400/1506 08005KT 9000 FEW020 SCT040
BECMG 1402/1404 22008KT
TEMPO 1409/1415 25010G25KT 4000 TSRA FEW018CB SCT030 BKN080